»·PEaware :: UAL257 KDEN-KSFO

UAL257 :: KDEN-KSFO

FLIGHT INFORMATION

Flight Status: Arrived
Operator:
United Airlines
More flights by this operator :: More flights under this callsign
Pilot: Henderson P. (1210)
Aircraft: BOEING 777-200
(B772)
More flights by this aircraft type
Origin: KDEN Denver Intl
United States
Destination: KSFO San Francisco Intl
United States
More flights between these airports :: More routes between these airports
Route: COORZ3 VOAXA Q136 WEEMN Q136 OAL INYOE DYAMD3
File this flight plan on PilotEdge
Remarks:
Altitude:
(Current/Filed)
30,000ft
Speed:
(Current/Filed)
505kts
Departed: 08-Sep-18 05:12 PM
Arrived: 08-Sep-18 07:17 PM
Distance/Time
Traveled:
839nm/2:05
Distance/Time
To Go:
Arrived

Flight Plot

Page will automatically refresh every two minutes.

Flight plan parsing failed; only flown route is shown


Map Options




Map Legend


Flown Route
Filed Route
Departure Airport
Arrival Airport
Navaid (VOR, NDB)
Fix

Horizontal Profiles

Position Reports

Time Latitude Longitude Heading Altitude Ground
Speed
08-Sep-18 16:51 39.858084 -104.672847 359 5444ft 0kts
08-Sep-18 16:52 39.858084 -104.672847 359 5444ft 0kts
08-Sep-18 16:53 39.858084 -104.672847 359 5444ft 0kts
08-Sep-18 16:54 39.858084 -104.672847 359 5444ft 0kts
08-Sep-18 16:55 39.858084 -104.672847 359 5444ft 0kts
08-Sep-18 16:56 39.858084 -104.672847 359 5444ft 0kts
08-Sep-18 16:57 39.858084 -104.672847 359 5444ft 0kts
08-Sep-18 16:58 39.858084 -104.672847 359 5444ft 0kts
08-Sep-18 16:59 39.858084 -104.672847 359 5444ft 0kts
08-Sep-18 17:00 39.858084 -104.672847 359 5444ft 0kts
08-Sep-18 17:01 39.858084 -104.672847 359 5444ft 0kts
08-Sep-18 17:02 39.858079 -104.672848 359 5444ft 0kts
08-Sep-18 17:03 39.857513 -104.672677 318 5444ft 2kts
08-Sep-18 17:04 39.857372 -104.672256 270 5444ft 0kts
08-Sep-18 17:05 39.857372 -104.672256 270 5444ft 0kts
08-Sep-18 17:06 39.857171 -104.672648 201 5444ft 4kts
08-Sep-18 17:07 39.856154 -104.673172 205 5444ft 7kts
08-Sep-18 17:08 39.855993 -104.678122 272 5444ft 14kts
08-Sep-18 17:09 39.855999 -104.681261 270 5444ft 4kts
08-Sep-18 17:10 39.854970 -104.684003 180 5444ft 11kts
08-Sep-18 17:11 39.852163 -104.684038 180 5444ft 10kts
08-Sep-18 17:12 39.848223 -104.684089 180 5444ft 16kts
08-Sep-18 17:13 39.843252 -104.684138 180 5444ft 17kts
08-Sep-18 17:14 39.840726 -104.691572 271 5444ft 100kts
08-Sep-18 17:15 39.843001 -104.759150 276 7509ft 217kts
08-Sep-18 17:16 39.880442 -104.841142 302 9770ft 300kts
08-Sep-18 17:17 39.926221 -104.939450 294 10941ft 353kts
08-Sep-18 17:18 39.938529 -105.073137 267 14519ft 389kts
08-Sep-18 17:19 39.919577 -105.216108 263 18083ft 412kts
08-Sep-18 17:20 39.902516 -105.365925 262 21667ft 424kts
08-Sep-18 17:21 39.884734 -105.519396 262 24895ft 434kts
08-Sep-18 17:22 39.865753 -105.676894 262 27781ft 447kts
08-Sep-18 17:23 39.849441 -105.839414 266 30467ft 460kts
08-Sep-18 17:24 39.835530 -106.003712 265 30532ft 454kts
08-Sep-18 17:25 39.821521 -106.166731 266 30466ft 454kts
08-Sep-18 17:26 39.807104 -106.330450 265 30400ft 456kts
08-Sep-18 17:27 39.791977 -106.494012 265 30356ft 455kts
08-Sep-18 17:28 39.774980 -106.657057 263 30319ft 456kts
08-Sep-18 17:29 39.757220 -106.814408 263 30274ft 456kts
08-Sep-18 17:30 39.738670 -106.977861 264 30259ft 455kts
08-Sep-18 17:31 39.721138 -107.140316 264 30300ft 455kts
08-Sep-18 17:32 39.702778 -107.302895 263 30379ft 454kts
08-Sep-18 17:33 39.684138 -107.464829 263 30365ft 453kts
08-Sep-18 17:34 39.665286 -107.626421 263 30268ft 452kts
08-Sep-18 17:35 39.646168 -107.788266 263 30179ft 453kts
08-Sep-18 17:36 39.626859 -107.949743 263 30168ft 453kts
08-Sep-18 17:37 39.607385 -108.110654 263 30165ft 452kts
08-Sep-18 17:38 39.587662 -108.271685 263 30153ft 453kts
08-Sep-18 17:39 39.567653 -108.433098 263 30136ft 453kts
08-Sep-18 17:40 39.547407 -108.594611 263 30106ft 452kts
08-Sep-18 17:41 39.527012 -108.755412 263 30097ft 452kts
08-Sep-18 17:42 39.506410 -108.915984 263 30074ft 452kts
08-Sep-18 17:43 39.485614 -109.076292 262 30074ft 450kts
08-Sep-18 17:44 39.464657 -109.236065 262 30070ft 450kts
08-Sep-18 17:45 39.443526 -109.395415 262 30066ft 448kts
08-Sep-18 17:46 39.422261 -109.554084 262 30061ft 447kts
08-Sep-18 17:47 39.401160 -109.712404 262 30056ft 446kts
08-Sep-18 17:48 39.379245 -109.870546 262 30060ft 446kts
08-Sep-18 17:49 39.357681 -110.028000 262 30073ft 445kts
08-Sep-18 17:50 39.336354 -110.184597 262 30082ft 439kts
08-Sep-18 17:51 39.314346 -110.343461 262 30084ft 448kts
08-Sep-18 17:52 39.293127 -110.501012 262 30078ft 441kts
08-Sep-18 17:53 39.271629 -110.658595 262 30107ft 449kts
08-Sep-18 17:54 39.249555 -110.816806 262 30109ft 450kts
08-Sep-18 17:55 39.227326 -110.973979 262 30110ft 441kts
08-Sep-18 17:56 39.205168 -111.129594 262 30102ft 444kts
08-Sep-18 17:57 39.182477 -111.286652 262 30091ft 448kts
08-Sep-18 17:58 39.159672 -111.442871 262 30089ft 443kts
08-Sep-18 17:59 39.136482 -111.600662 261 30082ft 442kts
08-Sep-18 17:59 39.117166 -111.730814 262 30066ft 448kts
08-Sep-18 18:01 39.090028 -111.912686 261 30020ft 440kts
08-Sep-18 18:02 39.066160 -112.069511 261 30009ft 443kts
08-Sep-18 18:02 39.046474 -112.198949 261 30020ft 441kts
08-Sep-18 18:03 39.022516 -112.353986 261 30024ft 453kts
08-Sep-18 18:05 38.994002 -112.537704 261 30040ft 446kts
08-Sep-18 18:05 38.973630 -112.667782 261 30033ft 439kts
08-Sep-18 18:06 38.949044 -112.822852 261 30047ft 444kts
08-Sep-18 18:07 38.924351 -112.977667 261 30065ft 442kts
08-Sep-18 18:08 38.899089 -113.133634 260 30045ft 440kts
08-Sep-18 18:09 38.873989 -113.288325 260 30040ft 448kts
08-Sep-18 18:11 38.848230 -113.445577 260 30053ft 453kts
08-Sep-18 18:12 38.822276 -113.601772 260 30048ft 446kts
08-Sep-18 18:13 38.796233 -113.758193 260 30050ft 444kts
08-Sep-18 18:14 38.769940 -113.913859 260 30059ft 448kts
08-Sep-18 18:15 38.743445 -114.070092 260 30071ft 447kts
08-Sep-18 18:16 38.716860 -114.225279 260 30080ft 447kts
08-Sep-18 18:17 38.689981 -114.380836 259 30088ft 447kts
08-Sep-18 18:18 38.662977 -114.535779 259 30093ft 447kts
08-Sep-18 18:19 38.635680 -114.691156 259 30096ft 447kts
08-Sep-18 18:20 38.608336 -114.845513 259 30096ft 445kts
08-Sep-18 18:21 38.580713 -115.000166 259 30111ft 446kts
08-Sep-18 18:22 38.552984 -115.154169 259 30123ft 445kts
08-Sep-18 18:23 38.525054 -115.308046 259 30113ft 445kts
08-Sep-18 18:24 38.496883 -115.462030 259 30110ft 445kts
08-Sep-18 18:25 38.468451 -115.616216 259 30107ft 445kts
08-Sep-18 18:26 38.439946 -115.769591 259 30102ft 445kts
08-Sep-18 18:27 38.411141 -115.923392 258 30099ft 445kts
08-Sep-18 18:28 38.382431 -116.077372 258 30084ft 446kts
08-Sep-18 18:29 38.352996 -116.230812 258 30083ft 446kts
08-Sep-18 18:30 38.322686 -116.383954 256 30080ft 446kts
08-Sep-18 18:31 38.287806 -116.535093 256 30081ft 445kts
08-Sep-18 18:32 38.253177 -116.686570 256 30083ft 444kts
08-Sep-18 18:33 38.219086 -116.837777 256 30086ft 444kts
08-Sep-18 18:34 38.185158 -116.988130 256 30088ft 443kts
08-Sep-18 18:35 38.150380 -117.137849 256 30088ft 442kts
08-Sep-18 18:36 38.115569 -117.287370 256 30087ft 441kts
08-Sep-18 18:37 38.081395 -117.436589 256 30083ft 440kts
08-Sep-18 18:38 38.046631 -117.586035 256 30072ft 440kts
08-Sep-18 18:39 38.011741 -117.734491 256 30054ft 439kts
08-Sep-18 18:40 37.989966 -117.885658 264 30042ft 436kts
08-Sep-18 18:41 37.974629 -118.038604 264 30032ft 436kts
08-Sep-18 18:42 37.958215 -118.190757 264 30025ft 436kts
08-Sep-18 18:43 37.942265 -118.343086 264 30021ft 437kts
08-Sep-18 18:44 37.925906 -118.496107 263 30156ft 438kts
08-Sep-18 18:45 37.908694 -118.649053 263 30193ft 439kts
08-Sep-18 18:46 37.891291 -118.802971 263 30225ft 441kts
08-Sep-18 18:47 37.873606 -118.956361 263 30253ft 441kts
08-Sep-18 18:48 37.855616 -119.110091 263 30240ft 442kts
08-Sep-18 18:49 37.837917 -119.263927 263 30214ft 441kts
08-Sep-18 18:50 37.820169 -119.417583 263 30188ft 441kts
08-Sep-18 18:51 37.801964 -119.570825 263 30174ft 440kts
08-Sep-18 18:52 37.783596 -119.723464 263 30146ft 439kts
08-Sep-18 18:53 37.765045 -119.875918 263 30065ft 439kts
08-Sep-18 18:54 37.746431 -120.028470 263 29969ft 439kts
08-Sep-18 18:55 37.727574 -120.181145 262 29939ft 439kts
08-Sep-18 18:56 37.708789 -120.328809 262 28965ft 411kts
08-Sep-18 18:57 37.691184 -120.474263 263 26182ft 419kts
08-Sep-18 18:58 37.674497 -120.616939 263 24002ft 397kts
08-Sep-18 18:59 37.659069 -120.746691 263 23201ft 353kts
08-Sep-18 19:00 37.644583 -120.867727 262 21371ft 346kts
08-Sep-18 19:01 37.629953 -120.986880 262 19530ft 340kts
08-Sep-18 19:02 37.614422 -121.103176 261 17722ft 334kts
08-Sep-18 19:03 37.598912 -121.217581 261 15940ft 328kts
08-Sep-18 19:04 37.585055 -121.330365 262 14159ft 323kts
08-Sep-18 19:05 37.572339 -121.441905 262 12415ft 319kts
08-Sep-18 19:06 37.559523 -121.550705 261 11218ft 300kts
08-Sep-18 19:07 37.545508 -121.649477 255 10428ft 278kts
08-Sep-18 19:08 37.523405 -121.739685 253 9499ft 264kts
08-Sep-18 19:09 37.502286 -121.827731 253 8352ft 262kts
08-Sep-18 19:10 37.498360 -121.910111 282 7483ft 262kts
08-Sep-18 19:11 37.515934 -121.999307 283 6209ft 265kts
08-Sep-18 19:12 37.532925 -122.087080 283 5501ft 233kts
08-Sep-18 19:13 37.545591 -122.151772 283 4682ft 187kts
08-Sep-18 19:14 37.556831 -122.207696 283 3474ft 138kts
08-Sep-18 19:15 37.569785 -122.253812 297 1776ft 142kts
08-Sep-18 19:16 37.589108 -122.298912 297 1106ft 136kts
08-Sep-18 19:17 37.606405 -122.340012 296 393ft 130kts
08-Sep-18 19:18 37.621413 -122.375879 297 27ft 50kts
08-Sep-18 19:19 37.625011 -122.386424 267 26ft 18kts
08-Sep-18 19:20 37.623256 -122.389608 207 26ft 6kts
08-Sep-18 19:21 37.622649 -122.390004 194 26ft 1kts
08-Sep-18 19:22 37.621820 -122.389806 206 26ft 4kts
08-Sep-18 19:23 37.621541 -122.389987 207 26ft 0kts
08-Sep-18 19:24 37.621541 -122.389987 207 26ft 0kts
08-Sep-18 19:25 37.621541 -122.389987 207 26ft 0kts
08-Sep-18 19:26 37.621541 -122.389987 207 26ft 0kts

Navigation Log

Ident Type
Flight plan parsing failed, navigation log unavailable